createdAt,value
2023-01-31T00:00:23.237Z,95611.22
2023-01-31T00:03:31.757Z,95595.88
2023-01-31T00:06:42.629Z,95603.50
2023-01-31T00:09:52.159Z,95606.66
2023-01-31T00:13:00.495Z,95615.91
2023-01-31T00:16:11.714Z,95618.41
2023-01-31T00:19:20.188Z,95615.66
2023-01-31T00:22:28.336Z,95599.91
2023-01-31T00:25:38.279Z,95601.81
2023-01-31T00:28:49.280Z,95616.75
2023-01-31T00:32:00.245Z,95619.50
2023-01-31T00:35:09.570Z,95614.25
2023-01-31T00:38:17.721Z,95610.06
2023-01-31T00:41:30.326Z,95609.00
2023-01-31T00:44:38.738Z,95614.00
2023-01-31T00:47:47.164Z,95623.66
2023-01-31T00:50:55.735Z,95611.50
2023-01-31T00:54:03.937Z,95615.06
2023-01-31T00:57:13.761Z,95612.16
2023-01-31T01:00:22.492Z,95609.25
2023-01-31T01:03:30.999Z,95612.03
2023-01-31T01:06:41.355Z,95611.63
2023-01-31T01:09:49.765Z,95596.78
2023-01-31T01:12:59.572Z,95594.03
2023-01-31T01:16:09.612Z,95600.41
2023-01-31T01:19:21.712Z,95616.44
2023-01-31T01:22:29.981Z,95601.66
2023-01-31T01:25:45.606Z,95589.59
2023-01-31T01:28:58.223Z,95591.94
2023-01-31T01:32:08.387Z,95607.69
2023-01-31T01:35:17.116Z,95611.19
2023-01-31T01:38:25.275Z,95603.44
2023-01-31T01:41:34.566Z,95600.41
2023-01-31T01:44:50.402Z,95612.03
2023-01-31T01:48:05.117Z,95614.78
2023-01-31T01:51:19.345Z,95611.44
2023-01-31T01:54:37.860Z,95620.28
2023-01-31T01:57:51.469Z,95625.81
2023-01-31T02:01:02.162Z,95627.97
2023-01-31T02:04:26.985Z,95631.53
2023-01-31T02:07:36.003Z,95630.59
2023-01-31T02:10:52.333Z,95632.38
2023-01-31T02:14:04.933Z,95638.03
2023-01-31T02:17:20.384Z,95651.72
2023-01-31T02:21:21.115Z,95647.03
2023-01-31T02:25:31.532Z,95640.06
2023-01-31T02:29:15.537Z,95648.53
2023-01-31T02:33:09.550Z,95651.50
2023-01-31T02:36:34.331Z,95650.25
2023-01-31T02:39:58.057Z,95654.28
2023-01-31T02:43:17.105Z,95646.16
2023-01-31T02:46:34.390Z,95655.50
2023-01-31T02:49:53.290Z,95656.44
2023-01-31T02:53:12.183Z,95649.53
2023-01-31T02:56:27.721Z,95660.75
2023-01-31T02:59:37.102Z,95659.06
2023-01-31T03:02:45.809Z,95659.78
2023-01-31T03:07:01.840Z,95662.47
2023-01-31T03:10:32.908Z,95672.72
2023-01-31T03:13:58.354Z,95670.91
2023-01-31T03:17:34.781Z,95669.00
2023-01-31T03:20:54.325Z,95677.38
2023-01-31T03:24:05.824Z,95675.13
2023-01-31T03:27:17.717Z,95679.44
2023-01-31T03:30:38.743Z,95685.03
2023-01-31T03:33:53.196Z,95682.34
2023-01-31T03:37:13.834Z,95693.50
2023-01-31T03:40:39.888Z,95698.09
2023-01-31T03:43:59.873Z,95690.50
2023-01-31T03:47:17.818Z,95694.56
2023-01-31T03:50:34.595Z,95707.06
2023-01-31T03:53:50.671Z,95710.94
2023-01-31T03:57:04.302Z,95703.44
2023-01-31T04:00:18.159Z,95706.19
2023-01-31T04:03:39.829Z,95704.44
2023-01-31T04:06:48.706Z,95706.25
2023-01-31T04:09:57.170Z,95706.34
2023-01-31T04:13:05.396Z,95713.16
2023-01-31T04:16:15.484Z,95701.00
2023-01-31T04:19:23.701Z,95706.47
2023-01-31T04:22:32.063Z,95715.31
2023-01-31T04:25:40.188Z,95719.47
2023-01-31T04:28:48.421Z,95720.53
2023-01-31T04:31:58.054Z,95738.03
2023-01-31T04:35:07.458Z,95747.69
2023-01-31T04:38:16.832Z,95738.72
2023-01-31T04:41:26.140Z,95745.91
2023-01-31T04:44:34.259Z,95741.59
2023-01-31T04:47:45.117Z,95742.22
2023-01-31T04:50:53.323Z,95745.31
2023-01-31T04:54:01.775Z,95746.63
2023-01-31T04:57:09.933Z,95751.72
2023-01-31T05:00:19.957Z,95752.06
2023-01-31T05:03:29.493Z,95761.50
2023-01-31T05:06:37.594Z,95766.84
2023-01-31T05:09:46.277Z,95767.34
2023-01-31T05:12:54.412Z,95772.81
2023-01-31T05:16:02.669Z,95783.41
2023-01-31T05:19:12.269Z,95779.72
2023-01-31T05:22:22.727Z,95790.19
2023-01-31T05:25:31.730Z,95787.09
2023-01-31T05:28:41.497Z,95794.97
2023-01-31T05:31:53.202Z,95800.91
2023-01-31T05:35:02.871Z,95804.72
2023-01-31T05:38:11.319Z,95798.50
2023-01-31T05:41:19.464Z,95797.56
2023-01-31T05:44:27.668Z,95801.31
2023-01-31T05:47:35.818Z,95809.59
2023-01-31T05:50:45.315Z,95805.09
2023-01-31T05:53:54.832Z,95814.09
2023-01-31T05:57:02.920Z,95816.44
2023-01-31T06:00:12.717Z,95812.78
2023-01-31T06:03:20.812Z,95820.66
2023-01-31T06:06:30.842Z,95809.16
2023-01-31T06:09:40.586Z,95820.00
2023-01-31T06:12:48.959Z,95808.59
2023-01-31T06:15:57.085Z,95818.38
2023-01-31T06:19:05.727Z,95814.69
2023-01-31T06:22:15.236Z,95811.84
2023-01-31T06:25:23.381Z,95811.50
2023-01-31T06:28:31.813Z,95805.31
2023-01-31T06:31:40.365Z,95810.66
2023-01-31T06:34:48.710Z,95803.75
2023-01-31T06:37:58.223Z,95796.16
2023-01-31T06:41:06.690Z,95801.97
2023-01-31T06:44:14.818Z,95804.84
2023-01-31T06:47:22.952Z,95824.97
2023-01-31T06:50:33.068Z,95810.19
2023-01-31T06:53:42.825Z,95817.34
2023-01-31T06:56:51.056Z,95812.44
2023-01-31T06:59:59.184Z,95823.66
2023-01-31T07:03:07.291Z,95816.69
2023-01-31T07:06:15.395Z,95827.28
2023-01-31T07:09:24.872Z,95845.75
2023-01-31T07:12:33.091Z,95840.31
2023-01-31T07:15:41.476Z,95842.69
2023-01-31T07:18:49.626Z,95841.78
2023-01-31T07:21:57.867Z,95838.47
2023-01-31T07:25:08.682Z,95833.34
2023-01-31T07:28:16.810Z,95835.19
2023-01-31T07:31:24.990Z,95835.91
2023-01-31T07:34:33.424Z,95832.22
2023-01-31T07:37:43.499Z,95833.88
2023-01-31T07:40:53.017Z,95823.19
2023-01-31T07:44:01.256Z,95828.59
2023-01-31T07:47:09.365Z,95823.72
2023-01-31T07:50:18.315Z,95835.13
2023-01-31T07:53:28.810Z,95829.69
2023-01-31T07:56:40.506Z,95827.94
2023-01-31T07:59:48.607Z,95831.13
2023-01-31T08:03:14.541Z,95836.63
2023-01-31T08:06:24.742Z,95827.44
2023-01-31T08:09:33.053Z,95835.41
2023-01-31T08:12:42.552Z,95842.94
2023-01-31T08:15:53.754Z,95842.81
2023-01-31T08:19:05.410Z,95846.31
2023-01-31T08:22:13.610Z,95841.91
2023-01-31T08:25:22.986Z,95842.13
2023-01-31T08:28:33.984Z,95836.03
2023-01-31T08:31:43.137Z,95842.91
2023-01-31T08:34:51.924Z,95848.94
2023-01-31T08:38:15.413Z,95849.25
2023-01-31T08:41:26.212Z,95848.59
2023-01-31T08:44:38.211Z,95853.88
2023-01-31T08:47:46.691Z,95847.78
2023-01-31T08:50:54.870Z,95844.94
2023-01-31T08:54:03.283Z,95845.50
2023-01-31T08:57:11.602Z,95838.47
2023-01-31T09:00:22.960Z,95842.88
2023-01-31T09:03:31.374Z,95840.94
2023-01-31T09:06:42.526Z,95844.81
2023-01-31T09:09:51.013Z,95836.72
2023-01-31T09:13:00.813Z,95824.31
2023-01-31T09:16:13.791Z,95824.06
2023-01-31T09:19:22.732Z,95818.59
2023-01-31T09:22:32.366Z,95832.75
2023-01-31T09:25:46.940Z,95821.84
2023-01-31T09:28:57.849Z,95823.06
2023-01-31T09:32:07.892Z,95821.53
2023-01-31T09:35:16.669Z,95809.91
2023-01-31T09:38:25.223Z,95809.00
2023-01-31T09:41:42.907Z,95831.31
2023-01-31T09:45:03.295Z,95829.50
2023-01-31T09:48:19.743Z,95834.38
2023-01-31T09:51:28.555Z,95834.81
2023-01-31T09:54:40.565Z,95834.22
2023-01-31T09:58:01.669Z,95832.66
2023-01-31T10:01:24.095Z,95835.34
2023-01-31T10:04:58.836Z,95830.50
2023-01-31T10:08:19.943Z,95829.50
2023-01-31T10:11:38.268Z,95844.34
2023-01-31T10:14:52.660Z,95834.31
2023-01-31T10:18:07.108Z,95834.53
2023-01-31T10:21:21.009Z,95834.63
2023-01-31T10:24:37.509Z,95828.06
2023-01-31T10:27:51.258Z,95825.16
2023-01-31T10:31:06.358Z,95813.22
2023-01-31T10:34:24.072Z,95791.88
2023-01-31T10:37:40.405Z,95798.13
2023-01-31T10:40:55.099Z,95780.53
2023-01-31T10:44:14.448Z,95779.69
2023-01-31T10:47:34.817Z,95787.59
2023-01-31T10:50:59.235Z,95793.00
2023-01-31T10:54:25.992Z,95789.25
2023-01-31T10:57:35.422Z,95789.94
2023-01-31T11:00:46.852Z,95774.41
2023-01-31T11:04:00.370Z,95783.00
2023-01-31T11:07:10.572Z,95779.69
2023-01-31T11:10:27.769Z,95763.75
2023-01-31T11:13:36.279Z,95776.06
2023-01-31T11:16:45.270Z,95764.34
2023-01-31T11:19:58.621Z,95742.41
2023-01-31T11:23:08.238Z,95745.72
2023-01-31T11:26:33.008Z,95746.44
2023-01-31T11:29:54.603Z,95738.50
2023-01-31T11:33:03.642Z,95719.81
2023-01-31T11:36:15.727Z,95719.66
2023-01-31T11:39:31.855Z,95718.69
2023-01-31T11:42:54.086Z,95709.25
2023-01-31T11:46:05.037Z,95709.09
2023-01-31T11:49:19.677Z,95699.94
2023-01-31T11:52:32.315Z,95687.03
2023-01-31T11:55:43.052Z,95683.88
2023-01-31T11:58:57.955Z,95684.97
2023-01-31T12:02:06.881Z,95684.13
2023-01-31T12:05:20.299Z,95680.28
2023-01-31T12:08:37.038Z,95669.09
2023-01-31T12:11:53.401Z,95675.84
2023-01-31T12:15:06.206Z,95663.88
2023-01-31T12:18:16.026Z,95656.06
2023-01-31T12:21:44.543Z,95650.84
2023-01-31T12:25:09.874Z,95637.06
2023-01-31T12:28:38.497Z,95615.91
2023-01-31T12:32:19.822Z,95607.25
2023-01-31T12:35:58.283Z,95607.94
2023-01-31T12:39:32.027Z,95635.75
2023-01-31T12:42:55.787Z,95639.28
2023-01-31T12:46:17.574Z,95645.50
2023-01-31T12:49:49.968Z,95640.53
2023-01-31T12:53:43.494Z,95633.78
2023-01-31T12:57:05.430Z,95627.22
2023-01-31T13:00:29.349Z,95627.25
2023-01-31T13:04:04.507Z,95631.34
2023-01-31T13:07:24.551Z,95627.69
2023-01-31T13:10:40.879Z,95609.97
2023-01-31T13:13:55.916Z,95598.94
2023-01-31T13:17:11.606Z,95595.84
2023-01-31T13:20:33.022Z,95597.56
2023-01-31T13:23:48.532Z,95590.53
2023-01-31T13:27:03.767Z,95589.09
2023-01-31T13:30:34.757Z,95580.38
2023-01-31T13:33:52.314Z,95597.19
2023-01-31T13:37:07.159Z,95596.81
2023-01-31T13:40:23.655Z,95591.69
2023-01-31T13:43:32.100Z,95564.19
2023-01-31T13:46:52.084Z,95558.16
2023-01-31T13:50:06.912Z,95539.28
2023-01-31T13:53:22.555Z,95544.66
2023-01-31T13:56:36.437Z,95549.28
2023-01-31T13:59:56.068Z,95549.97
2023-01-31T14:03:08.239Z,95547.19
2023-01-31T14:06:16.755Z,95547.38
2023-01-31T14:09:27.972Z,95559.47
2023-01-31T14:12:40.333Z,95567.59
2023-01-31T14:15:52.156Z,95562.88
2023-01-31T14:19:00.472Z,95571.59
2023-01-31T14:22:17.998Z,95566.91
2023-01-31T14:25:42.808Z,95580.09
2023-01-31T14:28:52.414Z,95575.94
2023-01-31T14:32:00.743Z,95568.75
2023-01-31T14:35:47.696Z,95568.63
2023-01-31T14:39:49.113Z,95551.03
2023-01-31T14:43:35.198Z,95537.47
2023-01-31T14:47:27.262Z,95538.00
2023-01-31T14:50:58.443Z,95538.84
2023-01-31T14:54:34.366Z,95542.47
2023-01-31T14:57:46.942Z,95531.94
2023-01-31T15:00:59.149Z,95519.34
2023-01-31T15:04:21.510Z,95515.44
2023-01-31T15:07:30.653Z,95518.34
2023-01-31T15:10:57.519Z,95521.19
2023-01-31T15:14:34.162Z,95544.69
2023-01-31T15:17:46.552Z,95531.41
2023-01-31T15:21:02.229Z,95535.00
2023-01-31T15:24:20.932Z,95529.47
2023-01-31T15:27:33.629Z,95524.22
2023-01-31T15:30:43.018Z,95521.47
2023-01-31T15:33:56.305Z,95519.78
2023-01-31T15:37:16.554Z,95522.16
2023-01-31T15:40:28.867Z,95534.34
2023-01-31T15:43:39.550Z,95542.06
2023-01-31T15:46:50.587Z,95551.06
2023-01-31T15:49:59.019Z,95548.31
2023-01-31T15:53:17.119Z,95539.19
2023-01-31T15:56:28.713Z,95533.09
2023-01-31T15:59:37.258Z,95522.44
2023-01-31T16:02:48.934Z,95520.06
2023-01-31T16:06:00.547Z,95522.56
2023-01-31T16:09:27.732Z,95511.22
2023-01-31T16:12:43.829Z,95512.06
2023-01-31T16:15:52.846Z,95496.97
2023-01-31T16:19:02.489Z,95508.19
2023-01-31T16:22:28.483Z,95512.06
2023-01-31T16:25:39.175Z,95513.44
2023-01-31T16:28:53.690Z,95523.00
2023-01-31T16:32:02.168Z,95531.97
2023-01-31T16:35:24.952Z,95536.16
2023-01-31T16:38:33.643Z,95542.25
2023-01-31T16:41:52.602Z,95555.09
2023-01-31T16:45:01.181Z,95550.28
2023-01-31T16:48:26.869Z,95548.88
2023-01-31T16:51:44.282Z,95529.50
2023-01-31T16:54:55.744Z,95536.03
2023-01-31T16:58:05.574Z,95533.66
2023-01-31T17:01:17.375Z,95544.19
2023-01-31T17:04:27.430Z,95553.84
2023-01-31T17:07:38.173Z,95556.91
2023-01-31T17:10:48.661Z,95564.53
2023-01-31T17:13:58.660Z,95572.13
2023-01-31T17:17:16.203Z,95566.56
2023-01-31T17:20:29.736Z,95563.41
2023-01-31T17:23:37.973Z,95561.88
2023-01-31T17:26:47.155Z,95558.69
2023-01-31T17:29:56.929Z,95566.59
2023-01-31T17:33:05.557Z,95557.97
2023-01-31T17:36:14.019Z,95559.38
2023-01-31T17:39:22.495Z,95558.94
2023-01-31T17:42:30.657Z,95575.06
2023-01-31T17:45:41.053Z,95573.81
2023-01-31T17:48:49.511Z,95571.25
2023-01-31T17:51:58.941Z,95571.00
2023-01-31T17:55:08.431Z,95559.13
2023-01-31T17:58:19.270Z,95563.81
2023-01-31T18:01:28.832Z,95572.09
2023-01-31T18:04:37.351Z,95573.22
2023-01-31T18:07:45.536Z,95589.88
2023-01-31T18:10:54.644Z,95596.22
2023-01-31T18:14:03.876Z,95595.13
2023-01-31T18:17:13.521Z,95599.94
2023-01-31T18:20:22.106Z,95593.34
2023-01-31T18:23:30.444Z,95592.50
2023-01-31T18:26:39.111Z,95589.56
2023-01-31T18:29:47.272Z,95592.63
2023-01-31T18:32:57.116Z,95599.84
2023-01-31T18:36:09.959Z,95602.59
2023-01-31T18:39:18.223Z,95593.59
2023-01-31T18:42:26.861Z,95580.31
2023-01-31T18:45:35.315Z,95582.63
2023-01-31T18:48:45.139Z,95588.97
2023-01-31T18:51:53.518Z,95596.47
2023-01-31T18:55:01.791Z,95606.75
2023-01-31T18:58:10.468Z,95600.66
2023-01-31T19:01:21.399Z,95598.16
2023-01-31T19:04:31.483Z,95603.25
2023-01-31T19:07:39.942Z,95599.25
2023-01-31T19:10:48.430Z,95590.53
2023-01-31T19:13:57.923Z,95598.53
2023-01-31T19:17:06.131Z,95607.41
2023-01-31T19:20:15.956Z,95598.66
2023-01-31T19:23:24.443Z,95593.94
2023-01-31T19:26:35.369Z,95585.91
2023-01-31T19:29:43.741Z,95595.47
2023-01-31T19:32:51.960Z,95585.09
2023-01-31T19:36:02.070Z,95591.84
2023-01-31T19:39:13.175Z,95597.28
2023-01-31T19:42:21.958Z,95592.44
2023-01-31T19:45:30.210Z,95604.63
2023-01-31T19:48:38.784Z,95605.91
2023-01-31T19:51:48.319Z,95599.34
2023-01-31T19:54:56.617Z,95604.91
2023-01-31T19:58:05.091Z,95598.00
2023-01-31T20:01:16.603Z,95587.47
2023-01-31T20:04:25.393Z,95572.63
2023-01-31T20:07:37.517Z,95564.56
2023-01-31T20:10:45.917Z,95571.22
2023-01-31T20:13:57.859Z,95573.13
2023-01-31T20:17:06.742Z,95566.41
2023-01-31T20:20:15.068Z,95576.63
2023-01-31T20:23:26.030Z,95577.84
2023-01-31T20:26:35.891Z,95575.66
2023-01-31T20:29:47.191Z,95573.19
2023-01-31T20:32:55.688Z,95573.47
2023-01-31T20:36:05.219Z,95581.19
2023-01-31T20:39:14.904Z,95588.72
2023-01-31T20:42:25.655Z,95587.56
2023-01-31T20:45:35.336Z,95578.69
2023-01-31T20:48:44.161Z,95579.94
2023-01-31T20:51:52.391Z,95575.94
2023-01-31T20:55:02.408Z,95587.03
2023-01-31T20:58:10.596Z,95588.72
2023-01-31T21:01:18.924Z,95577.47
2023-01-31T21:04:29.602Z,95575.44
2023-01-31T21:07:37.852Z,95573.50
2023-01-31T21:10:52.056Z,95579.28
2023-01-31T21:14:00.257Z,95576.25
2023-01-31T21:17:08.916Z,95579.03
2023-01-31T21:20:17.479Z,95580.13
2023-01-31T21:23:26.061Z,95579.03
2023-01-31T21:26:36.303Z,95581.38
2023-01-31T21:29:44.514Z,95583.19
2023-01-31T21:32:52.931Z,95584.84
2023-01-31T21:36:08.343Z,95583.59
2023-01-31T21:39:17.122Z,95581.53
2023-01-31T21:42:27.197Z,95557.28
2023-01-31T21:45:41.762Z,95549.78
2023-01-31T21:48:51.418Z,95546.47
2023-01-31T21:51:59.801Z,95542.47
2023-01-31T21:55:10.027Z,95561.28
2023-01-31T21:58:20.882Z,95556.03
2023-01-31T22:01:32.767Z,95546.91
2023-01-31T22:04:40.986Z,95535.78
2023-01-31T22:07:49.439Z,95540.75
2023-01-31T22:11:03.093Z,95549.66
2023-01-31T22:14:15.413Z,95541.91
2023-01-31T22:17:23.731Z,95535.25
2023-01-31T22:20:32.196Z,95533.31
2023-01-31T22:23:45.545Z,95515.31
2023-01-31T22:26:53.853Z,95514.50
2023-01-31T22:30:15.143Z,95517.94
2023-01-31T22:33:24.578Z,95509.50
2023-01-31T22:36:33.150Z,95499.09
2023-01-31T22:39:41.572Z,95516.03
2023-01-31T22:42:50.029Z,95501.03
2023-01-31T22:46:01.289Z,95515.63
2023-01-31T22:49:09.865Z,95512.41
2023-01-31T22:52:18.121Z,95507.31
2023-01-31T22:55:26.521Z,95506.03
2023-01-31T22:58:35.474Z,95509.94
2023-01-31T23:01:45.580Z,95513.66
2023-01-31T23:04:53.959Z,95511.88
2023-01-31T23:08:03.347Z,95510.59
2023-01-31T23:11:14.699Z,95521.00
2023-01-31T23:14:23.045Z,95517.53
2023-01-31T23:17:38.578Z,95518.09
2023-01-31T23:20:46.912Z,95515.34
2023-01-31T23:23:55.479Z,95514.63
2023-01-31T23:27:03.919Z,95518.09
2023-01-31T23:30:15.204Z,95529.72
2023-01-31T23:33:25.051Z,95526.84
2023-01-31T23:36:33.630Z,95533.34
2023-01-31T23:39:42.187Z,95534.34
2023-01-31T23:42:50.313Z,95534.03
2023-01-31T23:45:58.820Z,95535.44
2023-01-31T23:49:08.963Z,95536.41
2023-01-31T23:52:17.120Z,95526.03
2023-01-31T23:55:25.295Z,95528.97
2023-01-31T23:58:33.397Z,95514.69
